createdAt,value
2019-01-21T00:01:41.909Z,133.47
2019-01-21T00:04:11.793Z,123.37
2019-01-21T00:06:41.670Z,121.47
2019-01-21T00:09:11.543Z,104.77
2019-01-21T00:11:41.508Z,110.27
2019-01-21T00:14:11.536Z,108.93
2019-01-21T00:16:41.399Z,98.83
2019-01-21T00:19:11.261Z,97.30
2019-01-21T00:21:41.144Z,96.80
2019-01-21T00:24:10.992Z,96.27
2019-01-21T00:26:40.884Z,102.83
2019-01-21T00:29:10.722Z,100.17
2019-01-21T00:31:40.590Z,97.13
2019-01-21T00:34:10.941Z,92.30
2019-01-21T00:36:40.801Z,92.73
2019-01-21T00:39:10.766Z,98.30
2019-01-21T00:41:40.666Z,91.00
2019-01-21T00:44:10.579Z,93.33
2019-01-21T00:46:40.560Z,93.93
2019-01-21T00:49:10.448Z,89.50
2019-01-21T00:51:40.363Z,88.20
2019-01-21T00:54:10.354Z,98.00
2019-01-21T00:56:40.275Z,102.47
2019-01-21T00:59:10.114Z,98.47
2019-01-21T01:01:39.988Z,101.53
2019-01-21T01:04:09.871Z,90.33
2019-01-21T01:06:39.733Z,99.43
2019-01-21T01:09:09.704Z,94.00
2019-01-21T01:11:39.799Z,106.10
2019-01-21T01:14:09.635Z,105.47
2019-01-21T01:16:39.476Z,99.97
2019-01-21T01:19:09.371Z,97.00
2019-01-21T01:21:39.254Z,90.07
2019-01-21T01:24:09.188Z,89.47
2019-01-21T01:26:39.446Z,87.37
2019-01-21T01:29:09.345Z,96.37
2019-01-21T01:31:39.249Z,95.03
2019-01-21T01:34:09.118Z,93.97
2019-01-21T01:36:39.006Z,92.13
2019-01-21T01:39:09.180Z,86.83
2019-01-21T01:41:39.189Z,92.40
2019-01-21T01:44:09.047Z,108.97
2019-01-21T01:46:38.969Z,100.47
2019-01-21T01:49:08.871Z,104.40
2019-01-21T01:51:38.727Z,121.53
2019-01-21T01:54:08.619Z,112.47
2019-01-21T01:56:38.578Z,97.37
2019-01-21T01:59:08.473Z,110.07
2019-01-21T02:01:38.363Z,84.50
2019-01-21T02:04:08.026Z,84.60
2019-01-21T02:06:37.717Z,87.37
2019-01-21T02:09:09.091Z,94.43
2019-01-21T02:11:39.179Z,86.67
2019-01-21T02:14:08.854Z,91.97
2019-01-21T02:16:38.598Z,83.17
2019-01-21T02:19:08.291Z,87.43
2019-01-21T02:21:39.458Z,89.17
2019-01-21T02:24:16.597Z,89.53
2019-01-21T02:27:06.679Z,90.57
2019-01-21T02:30:09.617Z,103.10
2019-01-21T02:33:19.381Z,96.63
2019-01-21T02:36:38.684Z,91.83
2019-01-21T02:39:35.249Z,85.53
2019-01-21T02:42:32.757Z,91.43
2019-01-21T02:45:42.584Z,86.23
2019-01-21T02:48:52.252Z,112.47
2019-01-21T02:51:53.577Z,113.17
2019-01-21T02:54:41.820Z,96.20
2019-01-21T02:57:58.776Z,97.23
2019-01-21T03:01:02.446Z,107.77
2019-01-21T03:04:23.883Z,104.90
2019-01-21T03:07:16.599Z,99.70
2019-01-21T03:10:25.925Z,99.17
2019-01-21T03:13:05.214Z,102.43
2019-01-21T03:16:16.111Z,99.03
2019-01-21T03:19:30.987Z,92.73
2019-01-21T03:22:37.505Z,92.57
2019-01-21T03:26:00.357Z,98.07
2019-01-21T03:29:11.656Z,103.90
2019-01-21T03:32:26.643Z,117.17
2019-01-21T03:35:43.206Z,120.43
2019-01-21T03:39:01.201Z,117.70
2019-01-21T03:41:38.018Z,108.13
2019-01-21T03:44:40.215Z,108.87
2019-01-21T03:47:43.835Z,114.27
2019-01-21T03:50:40.446Z,100.57
2019-01-21T03:54:02.101Z,104.47
2019-01-21T03:56:59.892Z,105.33
2019-01-21T04:00:22.346Z,102.73
2019-01-21T04:03:22.044Z,100.13
2019-01-21T04:06:15.950Z,96.97
2019-01-21T04:09:28.626Z,97.10
2019-01-21T04:13:12.851Z,100.03
2019-01-21T04:16:30.036Z,96.37
2019-01-21T04:19:33.605Z,95.97
2019-01-21T04:22:50.169Z,89.00
2019-01-21T04:25:54.558Z,95.60
2019-01-21T04:28:46.374Z,100.73
2019-01-21T04:31:57.194Z,101.30
2019-01-21T04:35:05.972Z,104.10
2019-01-21T04:38:15.969Z,97.10
2019-01-21T04:41:29.222Z,102.73
2019-01-21T04:44:13.061Z,98.53
2019-01-21T04:47:19.217Z,95.47
2019-01-21T04:50:30.537Z,106.93
2019-01-21T04:53:14.589Z,103.00
2019-01-21T04:56:08.704Z,98.43
2019-01-21T04:59:15.251Z,102.33
2019-01-21T05:02:36.935Z,96.27
2019-01-21T05:05:35.939Z,90.77
2019-01-21T05:08:45.148Z,89.57
2019-01-21T05:11:42.141Z,94.27
2019-01-21T05:14:34.213Z,99.53
2019-01-21T05:18:02.961Z,85.93
2019-01-21T05:21:20.964Z,82.37
2019-01-21T05:24:24.051Z,79.97
2019-01-21T05:27:28.715Z,82.73
2019-01-21T05:30:39.964Z,87.03
2019-01-21T05:33:44.024Z,84.50
2019-01-21T05:37:03.478Z,78.70
2019-01-21T05:40:08.988Z,79.47
2019-01-21T05:43:17.786Z,84.13
2019-01-21T05:46:17.305Z,82.43
2019-01-21T05:49:25.016Z,86.50
2019-01-21T05:52:28.136Z,84.03
2019-01-21T05:55:53.740Z,92.00
2019-01-21T05:58:55.830Z,131.57
2019-01-21T06:02:05.447Z,196.30
2019-01-21T06:05:43.154Z,146.03
2019-01-21T06:08:56.311Z,116.90
2019-01-21T06:12:02.967Z,162.30
2019-01-21T06:15:19.372Z,116.73
2019-01-21T06:18:36.163Z,110.07
2019-01-21T06:21:41.349Z,177.80
2019-01-21T06:24:51.556Z,131.30
2019-01-21T06:27:51.814Z,123.57
2019-01-21T06:31:07.706Z,89.20
2019-01-21T06:34:26.084Z,97.87
2019-01-21T06:37:31.494Z,113.10
2019-01-21T06:40:27.577Z,95.80
2019-01-21T06:43:37.115Z,88.13
2019-01-21T06:46:53.482Z,81.37
2019-01-21T06:50:02.638Z,87.63
2019-01-21T06:53:08.738Z,85.80
2019-01-21T06:56:16.409Z,87.77
2019-01-21T06:59:15.634Z,112.30
2019-01-21T07:02:10.248Z,91.07
2019-01-21T07:05:18.323Z,92.97
2019-01-21T07:08:37.711Z,98.80
2019-01-21T07:11:51.376Z,95.43
2019-01-21T07:14:53.215Z,101.50
2019-01-21T07:17:33.679Z,104.93
2019-01-21T07:20:33.459Z,102.20
2019-01-21T07:24:01.950Z,92.70
2019-01-21T07:27:18.139Z,111.63
2019-01-21T07:30:27.109Z,99.30
2019-01-21T07:33:30.939Z,89.77
2019-01-21T07:36:34.168Z,73.47
2019-01-21T07:39:54.190Z,70.33
2019-01-21T07:43:01.849Z,70.23
2019-01-21T07:45:46.490Z,78.37
2019-01-21T07:48:58.770Z,66.37
2019-01-21T07:52:21.344Z,65.10
2019-01-21T07:55:15.100Z,71.20
2019-01-21T07:58:46.828Z,66.53
2019-01-21T08:01:45.664Z,72.37
2019-01-21T08:04:50.583Z,67.27
2019-01-21T08:07:35.830Z,79.50
2019-01-21T08:10:40.051Z,84.13
2019-01-21T08:13:31.319Z,87.20
2019-01-21T08:16:57.181Z,86.57
2019-01-21T08:19:50.329Z,103.83
2019-01-21T08:22:55.417Z,105.73
2019-01-21T08:25:57.818Z,76.53
2019-01-21T08:28:47.984Z,88.93
2019-01-21T08:32:03.143Z,99.90
2019-01-21T08:35:16.366Z,88.07
2019-01-21T08:38:23.299Z,89.27
2019-01-21T08:41:19.263Z,89.40
2019-01-21T08:44:22.005Z,68.83
2019-01-21T08:47:20.864Z,69.17
2019-01-21T08:50:17.073Z,71.47
2019-01-21T08:53:21.040Z,58.27
2019-01-21T08:56:34.798Z,65.17
2019-01-21T08:59:39.044Z,83.37
2019-01-21T09:03:02.863Z,74.67
2019-01-21T09:06:12.078Z,89.20
2019-01-21T09:09:16.385Z,86.20
2019-01-21T09:12:27.535Z,66.07
2019-01-21T09:15:19.196Z,71.83
2019-01-21T09:18:25.890Z,80.73
2019-01-21T09:21:16.948Z,72.23
2019-01-21T09:24:08.014Z,86.17
2019-01-21T09:27:39.608Z,74.83
2019-01-21T09:30:40.950Z,105.80
2019-01-21T09:33:56.244Z,105.37
2019-01-21T09:36:46.909Z,107.57
2019-01-21T09:39:49.652Z,109.30
2019-01-21T09:42:55.803Z,127.50
2019-01-21T09:46:02.224Z,110.40
2019-01-21T09:48:30.150Z,156.57
2019-01-21T09:51:05.160Z,223.80
2019-01-21T09:53:36.700Z,303.03
2019-01-21T09:56:07.137Z,284.10
2019-01-21T09:58:37.927Z,250.80
2019-01-21T10:01:08.556Z,352.97
2019-01-21T10:03:38.245Z,118.67
2019-01-21T10:06:10.035Z,124.33
2019-01-21T10:09:12.100Z,124.97
2019-01-21T10:12:43.516Z,87.17
2019-01-21T10:15:32.237Z,100.37
2019-01-21T10:18:36.061Z,87.27
2019-01-21T10:21:37.730Z,94.13
2019-01-21T10:25:06.284Z,95.03
2019-01-21T10:28:12.731Z,83.90
2019-01-21T10:31:25.370Z,89.93
2019-01-21T10:34:31.798Z,85.70
2019-01-21T10:37:27.101Z,94.97
2019-01-21T10:40:09.021Z,76.47
2019-01-21T10:43:16.311Z,76.53
2019-01-21T10:46:32.631Z,83.47
2019-01-21T10:49:40.846Z,80.33
2019-01-21T10:52:50.296Z,108.67
2019-01-21T10:56:05.366Z,86.47
2019-01-21T10:59:00.017Z,130.13
2019-01-21T11:01:58.500Z,88.23
2019-01-21T11:04:55.097Z,77.37
2019-01-21T11:08:16.613Z,82.07
2019-01-21T11:11:01.896Z,69.90
2019-01-21T11:14:12.487Z,91.73
2019-01-21T11:16:57.635Z,128.30
2019-01-21T11:20:04.183Z,107.93
2019-01-21T11:23:00.570Z,123.83
2019-01-21T11:26:02.246Z,126.20
2019-01-21T11:28:46.625Z,163.77
2019-01-21T11:31:48.465Z,121.57
2019-01-21T11:34:44.285Z,79.40
2019-01-21T11:38:00.145Z,88.57
2019-01-21T11:41:40.873Z,91.13
2019-01-21T11:44:53.631Z,97.60
2019-01-21T11:47:49.237Z,88.27
2019-01-21T11:50:45.095Z,85.43
2019-01-21T11:53:28.354Z,112.00
2019-01-21T11:56:36.279Z,118.07
2019-01-21T12:00:17.057Z,77.20
2019-01-21T12:03:11.062Z,61.83
2019-01-21T12:06:05.238Z,75.87
2019-01-21T12:09:11.443Z,75.10
2019-01-21T12:12:10.399Z,77.23
2019-01-21T12:15:19.596Z,75.37
2019-01-21T12:18:32.802Z,97.10
2019-01-21T12:21:49.421Z,77.40
2019-01-21T12:24:46.319Z,69.03
2019-01-21T12:27:44.419Z,71.77
2019-01-21T12:30:56.644Z,54.60
2019-01-21T12:34:04.347Z,66.70
2019-01-21T12:36:46.368Z,58.53
2019-01-21T12:39:25.432Z,66.23
2019-01-21T12:42:33.900Z,70.43
2019-01-21T12:45:58.128Z,78.33
2019-01-21T12:49:08.657Z,65.13
2019-01-21T12:52:10.305Z,62.37
2019-01-21T12:54:57.881Z,81.30
2019-01-21T12:58:07.341Z,85.23
2019-01-21T13:01:26.095Z,87.40
2019-01-21T13:04:35.261Z,65.43
2019-01-21T13:07:46.464Z,67.43
2019-01-21T13:11:09.113Z,54.80
2019-01-21T13:14:06.494Z,64.43
2019-01-21T13:16:54.109Z,52.93
2019-01-21T13:20:10.753Z,57.20
2019-01-21T13:23:21.196Z,64.83
2019-01-21T13:26:15.929Z,67.43
2019-01-21T13:29:16.251Z,77.07
2019-01-21T13:32:17.773Z,78.37
2019-01-21T13:35:03.357Z,77.87
2019-01-21T13:38:13.793Z,88.97
2019-01-21T13:41:13.784Z,95.17
2019-01-21T13:44:17.247Z,83.87
2019-01-21T13:47:29.550Z,95.37
2019-01-21T13:50:37.079Z,91.83
2019-01-21T13:53:28.987Z,84.43
2019-01-21T13:56:14.089Z,74.87
2019-01-21T13:59:26.535Z,83.50
2019-01-21T14:02:06.146Z,92.23
2019-01-21T14:05:12.419Z,111.43
2019-01-21T14:08:28.244Z,120.37
2019-01-21T14:11:08.348Z,89.30
2019-01-21T14:14:14.558Z,87.80
2019-01-21T14:17:21.932Z,71.57
2019-01-21T14:20:16.817Z,77.70
2019-01-21T14:23:11.452Z,76.37
2019-01-21T14:26:14.533Z,80.50
2019-01-21T14:29:17.907Z,76.27
2019-01-21T14:32:25.689Z,73.60
2019-01-21T14:35:32.304Z,89.20
2019-01-21T14:38:33.121Z,72.00
2019-01-21T14:41:45.721Z,79.33
2019-01-21T14:44:51.933Z,84.33
2019-01-21T14:47:55.787Z,86.50
2019-01-21T14:50:52.063Z,77.23
2019-01-21T14:54:20.333Z,82.83
2019-01-21T14:57:45.674Z,86.40
2019-01-21T15:00:35.225Z,78.03
2019-01-21T15:03:39.406Z,81.33
2019-01-21T15:07:02.260Z,80.70
2019-01-21T15:10:08.565Z,81.20
2019-01-21T15:13:16.168Z,80.40
2019-01-21T15:16:24.739Z,77.47
2019-01-21T15:19:00.026Z,82.80
2019-01-21T15:22:06.425Z,79.30
2019-01-21T15:25:04.378Z,82.87
2019-01-21T15:28:33.337Z,84.10
2019-01-21T15:31:52.832Z,94.13
2019-01-21T15:35:12.748Z,84.20
2019-01-21T15:38:08.395Z,90.63
2019-01-21T15:41:01.834Z,90.13
2019-01-21T15:44:16.584Z,85.20
2019-01-21T15:47:29.338Z,82.27
2019-01-21T15:50:27.676Z,90.73
2019-01-21T15:53:43.813Z,89.70
2019-01-21T15:56:39.095Z,85.97
2019-01-21T15:59:40.465Z,84.33
2019-01-21T16:02:31.583Z,90.00
2019-01-21T16:05:40.672Z,91.80
2019-01-21T16:08:52.925Z,92.33
2019-01-21T16:12:18.438Z,96.73
2019-01-21T16:15:34.853Z,87.03
2019-01-21T16:18:29.362Z,96.87
2019-01-21T16:21:45.975Z,89.30
2019-01-21T16:24:31.461Z,87.07
2019-01-21T16:27:25.826Z,90.93
2019-01-21T16:30:29.038Z,87.03
2019-01-21T16:33:31.765Z,96.70
2019-01-21T16:36:18.832Z,143.43
2019-01-21T16:39:38.257Z,181.43
2019-01-21T16:42:15.730Z,167.10
2019-01-21T16:44:48.906Z,138.60
2019-01-21T16:47:18.678Z,225.63
2019-01-21T16:49:48.375Z,166.10
2019-01-21T16:52:18.094Z,116.13
2019-01-21T16:54:47.778Z,141.87
2019-01-21T16:57:17.452Z,164.87
2019-01-21T16:59:47.185Z,120.43
2019-01-21T17:02:16.971Z,94.17
2019-01-21T17:04:47.194Z,79.63
2019-01-21T17:07:16.918Z,78.87
2019-01-21T17:09:46.625Z,96.77
2019-01-21T17:12:16.375Z,123.27
2019-01-21T17:14:46.071Z,175.23
2019-01-21T17:17:15.855Z,144.70
2019-01-21T17:19:45.693Z,141.40
2019-01-21T17:22:16.228Z,112.90
2019-01-21T17:24:45.912Z,115.43
2019-01-21T17:27:16.305Z,108.00
2019-01-21T17:29:46.007Z,84.30
2019-01-21T17:32:15.717Z,113.37
2019-01-21T17:34:45.417Z,152.77
2019-01-21T17:37:15.111Z,94.83
2019-01-21T17:39:44.833Z,121.03
2019-01-21T17:42:14.546Z,88.90
2019-01-21T17:44:44.238Z,74.97
2019-01-21T17:47:13.896Z,80.43
2019-01-21T17:49:43.829Z,71.67
2019-01-21T17:52:13.670Z,105.67
2019-01-21T17:54:43.366Z,83.60
2019-01-21T17:57:13.099Z,137.60
2019-01-21T17:59:42.783Z,107.27
2019-01-21T18:02:12.491Z,150.80
2019-01-21T18:04:42.247Z,109.63
2019-01-21T18:07:11.951Z,137.07
2019-01-21T18:09:41.667Z,106.53
2019-01-21T18:12:11.371Z,97.00
2019-01-21T18:14:41.142Z,88.23
2019-01-21T18:17:10.853Z,81.67
2019-01-21T18:19:40.565Z,91.17
2019-01-21T18:22:10.333Z,69.33
2019-01-21T18:24:40.085Z,68.83
2019-01-21T18:27:09.794Z,70.97
2019-01-21T18:29:39.998Z,58.87
2019-01-21T18:32:09.061Z,60.50
2019-01-21T18:34:39.069Z,64.33
2019-01-21T18:37:08.824Z,61.53
2019-01-21T18:39:40.748Z,62.20
2019-01-21T18:42:10.400Z,69.70
2019-01-21T18:44:40.109Z,77.57
2019-01-21T18:47:09.932Z,78.17
2019-01-21T18:49:40.168Z,81.93
2019-01-21T18:52:09.973Z,79.80
2019-01-21T18:54:39.749Z,80.00
2019-01-21T18:57:09.542Z,77.23
2019-01-21T18:59:39.256Z,80.10
2019-01-21T19:02:08.965Z,77.80
2019-01-21T19:04:40.319Z,69.97
2019-01-21T19:07:10.037Z,72.43
2019-01-21T19:09:39.748Z,70.83
2019-01-21T19:12:09.482Z,292.37
2019-01-21T19:14:39.157Z,125.77
2019-01-21T19:17:08.864Z,74.20
2019-01-21T19:19:38.780Z,147.27
2019-01-21T19:22:08.606Z,251.77
2019-01-21T19:24:38.340Z,99.90
2019-01-21T19:27:08.031Z,90.07
2019-01-21T19:29:37.712Z,108.50
2019-01-21T19:32:07.446Z,130.10
2019-01-21T19:34:37.140Z,118.83
2019-01-21T19:37:06.822Z,84.93
2019-01-21T19:39:36.541Z,92.87
2019-01-21T19:42:06.241Z,91.93
2019-01-21T19:44:35.981Z,71.40
2019-01-21T19:47:07.927Z,65.60
2019-01-21T19:49:37.675Z,57.77
2019-01-21T19:52:07.375Z,57.80
2019-01-21T19:54:37.046Z,59.10
2019-01-21T19:57:06.837Z,54.90
2019-01-21T19:59:36.668Z,51.77
2019-01-21T20:02:07.966Z,62.03
2019-01-21T20:04:37.780Z,50.53
2019-01-21T20:07:07.537Z,56.97
2019-01-21T20:09:37.248Z,52.77
2019-01-21T20:12:06.946Z,58.67
2019-01-21T20:14:36.789Z,54.87
2019-01-21T20:17:06.469Z,51.17
2019-01-21T20:19:36.154Z,47.77
2019-01-21T20:22:07.981Z,48.83
2019-01-21T20:24:37.279Z,50.20
2019-01-21T20:27:06.968Z,49.30
2019-01-21T20:29:36.732Z,46.20
2019-01-21T20:32:06.535Z,78.87
2019-01-21T20:34:36.251Z,59.73
2019-01-21T20:37:06.041Z,58.37
2019-01-21T20:39:35.767Z,55.47
2019-01-21T20:42:05.543Z,53.07
2019-01-21T20:44:35.297Z,111.97
2019-01-21T20:47:05.844Z,76.33
2019-01-21T20:49:35.532Z,134.67
2019-01-21T20:52:05.537Z,123.30
2019-01-21T20:54:35.276Z,72.73
2019-01-21T20:57:04.982Z,62.43
2019-01-21T20:59:34.733Z,62.60
2019-01-21T21:02:04.676Z,55.60
2019-01-21T21:04:36.075Z,47.30
2019-01-21T21:07:06.166Z,46.33
2019-01-21T21:09:37.399Z,50.63
2019-01-21T21:12:07.444Z,45.93
2019-01-21T21:14:37.429Z,47.90
2019-01-21T21:17:07.388Z,49.60
2019-01-21T21:19:37.240Z,55.17
2019-01-21T21:22:07.764Z,56.17
2019-01-21T21:24:37.760Z,71.50
2019-01-21T21:27:07.684Z,79.33
2019-01-21T21:29:37.673Z,64.43
2019-01-21T21:32:07.885Z,77.57
2019-01-21T21:34:37.765Z,83.67
2019-01-21T21:37:07.633Z,71.47
2019-01-21T21:39:37.469Z,49.40
2019-01-21T21:42:07.267Z,48.47
2019-01-21T21:44:37.112Z,40.83
2019-01-21T21:47:06.919Z,42.03
2019-01-21T21:49:36.697Z,44.27
2019-01-21T21:52:06.521Z,47.63
2019-01-21T21:54:36.455Z,60.60
2019-01-21T21:57:06.309Z,43.93
2019-01-21T21:59:36.113Z,52.17
2019-01-21T22:02:06.323Z,44.70
2019-01-21T22:04:36.120Z,51.10
2019-01-21T22:07:05.953Z,49.73
2019-01-21T22:09:39.045Z,47.03
2019-01-21T22:12:08.872Z,51.50
2019-01-21T22:14:39.197Z,48.43
2019-01-21T22:17:09.255Z,40.87
2019-01-21T22:19:39.490Z,35.17
2019-01-21T22:22:09.277Z,40.60
2019-01-21T22:24:39.093Z,42.43
2019-01-21T22:27:10.056Z,41.20
2019-01-21T22:29:39.760Z,41.20
2019-01-21T22:32:09.872Z,45.77
2019-01-21T22:34:39.602Z,47.83
2019-01-21T22:37:09.832Z,42.80
2019-01-21T22:39:39.516Z,38.17
2019-01-21T22:42:09.271Z,35.80
2019-01-21T22:44:39.142Z,34.43
2019-01-21T22:47:08.847Z,36.20
2019-01-21T22:49:38.534Z,34.07
2019-01-21T22:52:08.318Z,32.90
2019-01-21T22:54:38.064Z,36.67
2019-01-21T22:57:08.491Z,37.20
2019-01-21T22:59:38.212Z,35.37
2019-01-21T23:02:08.080Z,36.77
2019-01-21T23:04:37.770Z,36.97
2019-01-21T23:07:07.484Z,36.63
2019-01-21T23:09:37.683Z,41.13
2019-01-21T23:12:07.386Z,36.07
2019-01-21T23:14:37.100Z,40.97
2019-01-21T23:17:06.793Z,38.77
2019-01-21T23:19:36.514Z,38.53
2019-01-21T23:22:19.484Z,45.67
2019-01-21T23:24:49.253Z,41.40
2019-01-21T23:27:18.973Z,37.93
2019-01-21T23:29:48.684Z,35.50
2019-01-21T23:32:18.443Z,37.53
2019-01-21T23:34:48.121Z,35.37
2019-01-21T23:37:17.803Z,36.40
2019-01-21T23:39:47.517Z,38.67
2019-01-21T23:42:17.398Z,40.50
2019-01-21T23:44:47.298Z,48.50
2019-01-21T23:47:16.978Z,50.90
2019-01-21T23:49:46.676Z,47.60
2019-01-21T23:52:16.791Z,65.47
2019-01-21T23:54:46.469Z,60.47
2019-01-21T23:57:16.774Z,54.90
2019-01-21T23:59:46.485Z,54.47
